sensor_id;sensor_type;location;lat;lon;timestamp;temperature;humidity
23251;DHT22;11794;49.730;10.088;2022-11-20T00:01:40;1.60;99.90
23251;DHT22;11794;49.730;10.088;2022-11-20T00:04:06;1.60;99.90
23251;DHT22;11794;49.730;10.088;2022-11-20T00:06:31;1.50;99.90
23251;DHT22;11794;49.730;10.088;2022-11-20T00:08:59;1.50;99.90
23251;DHT22;11794;49.730;10.088;2022-11-20T00:11:27;1.60;99.90
23251;DHT22;11794;49.730;10.088;2022-11-20T00:13:55;1.70;99.90
23251;DHT22;11794;49.730;10.088;2022-11-20T00:16:23;1.70;99.90
23251;DHT22;11794;49.730;10.088;2022-11-20T00:18:49;1.60;99.90
23251;DHT22;11794;49.730;10.088;2022-11-20T00:21:20;1.70;99.90
23251;DHT22;11794;49.730;10.088;2022-11-20T00:23:47;1.70;99.90
23251;DHT22;11794;49.730;10.088;2022-11-20T00:26:15;1.70;99.90
23251;DHT22;11794;49.730;10.088;2022-11-20T00:28:42;1.70;99.90
23251;DHT22;11794;49.730;10.088;2022-11-20T00:31:13;1.70;99.90
23251;DHT22;11794;49.730;10.088;2022-11-20T00:33:39;1.70;99.90
23251;DHT22;11794;49.730;10.088;2022-11-20T00:36:07;1.70;99.90
23251;DHT22;11794;49.730;10.088;2022-11-20T00:38:33;1.70;99.90
23251;DHT22;11794;49.730;10.088;2022-11-20T00:41:01;1.70;99.90
23251;DHT22;11794;49.730;10.088;2022-11-20T00:43:26;1.70;99.90
23251;DHT22;11794;49.730;10.088;2022-11-20T00:46:03;1.70;99.90
23251;DHT22;11794;49.730;10.088;2022-11-20T00:48:29;1.70;99.90
23251;DHT22;11794;49.730;10.088;2022-11-20T00:50:56;1.80;99.90
23251;DHT22;11794;49.730;10.088;2022-11-20T00:53:22;1.70;99.90
23251;DHT22;11794;49.730;10.088;2022-11-20T00:56:06;1.80;99.90
23251;DHT22;11794;49.730;10.088;2022-11-20T00:58:37;1.70;99.90
23251;DHT22;11794;49.730;10.088;2022-11-20T01:01:11;1.70;99.90
23251;DHT22;11794;49.730;10.088;2022-11-20T01:03:39;1.70;99.90
23251;DHT22;11794;49.730;10.088;2022-11-20T01:06:10;1.70;99.90
23251;DHT22;11794;49.730;10.088;2022-11-20T01:08:37;1.60;99.90
23251;DHT22;11794;49.730;10.088;2022-11-20T01:11:06;1.60;99.90
23251;DHT22;11794;49.730;10.088;2022-11-20T01:13:32;1.50;99.90
23251;DHT22;11794;49.730;10.088;2022-11-20T01:16:15;1.60;99.90
23251;DHT22;11794;49.730;10.088;2022-11-20T01:18:43;1.60;99.90
23251;DHT22;11794;49.730;10.088;2022-11-20T01:21:12;1.60;99.90
23251;DHT22;11794;49.730;10.088;2022-11-20T01:23:39;1.60;99.90
23251;DHT22;11794;49.730;10.088;2022-11-20T01:26:14;1.60;99.90
23251;DHT22;11794;49.730;10.088;2022-11-20T01:28:41;1.50;99.90
23251;DHT22;11794;49.730;10.088;2022-11-20T01:31:18;1.50;99.90
23251;DHT22;11794;49.730;10.088;2022-11-20T01:33:45;1.50;99.90
23251;DHT22;11794;49.730;10.088;2022-11-20T01:36:12;1.50;99.90
23251;DHT22;11794;49.730;10.088;2022-11-20T01:38:38;1.50;99.90
23251;DHT22;11794;49.730;10.088;2022-11-20T01:41:04;1.40;99.90
23251;DHT22;11794;49.730;10.088;2022-11-20T01:43:30;1.40;99.90
23251;DHT22;11794;49.730;10.088;2022-11-20T01:48:26;1.30;99.90
23251;DHT22;11794;49.730;10.088;2022-11-20T01:50:53;1.30;99.90
23251;DHT22;11794;49.730;10.088;2022-11-20T01:53:22;1.30;99.90
23251;DHT22;11794;49.730;10.088;2022-11-20T01:55:51;1.30;99.90
23251;DHT22;11794;49.730;10.088;2022-11-20T01:58:21;1.40;99.90
23251;DHT22;11794;49.730;10.088;2022-11-20T02:00:47;1.50;99.90
23251;DHT22;11794;49.730;10.088;2022-11-20T02:03:16;1.50;99.90
23251;DHT22;11794;49.730;10.088;2022-11-20T02:05:53;1.50;99.90
23251;DHT22;11794;49.730;10.088;2022-11-20T02:08:21;1.60;99.90
23251;DHT22;11794;49.730;10.088;2022-11-20T02:10:48;1.60;99.90
23251;DHT22;11794;49.730;10.088;2022-11-20T02:13:14;1.60;99.90
23251;DHT22;11794;49.730;10.088;2022-11-20T02:15:57;1.50;99.90
23251;DHT22;11794;49.730;10.088;2022-11-20T02:18:23;1.40;99.90
23251;DHT22;11794;49.730;10.088;2022-11-20T02:20:54;1.40;99.90
23251;DHT22;11794;49.730;10.088;2022-11-20T02:25:55;1.50;99.90
23251;DHT22;11794;49.730;10.088;2022-11-20T02:28:23;1.50;99.90
23251;DHT22;11794;49.730;10.088;2022-11-20T02:30:48;1.50;99.90
23251;DHT22;11794;49.730;10.088;2022-11-20T02:33:14;1.40;99.90
23251;DHT22;11794;49.730;10.088;2022-11-20T02:35:42;1.40;99.90
23251;DHT22;11794;49.730;10.088;2022-11-20T02:38:08;1.30;99.90
23251;DHT22;11794;49.730;10.088;2022-11-20T02:40:34;1.30;99.90
23251;DHT22;11794;49.730;10.088;2022-11-20T02:42:59;1.30;99.90
23251;DHT22;11794;49.730;10.088;2022-11-20T02:45:25;1.30;99.90
23251;DHT22;11794;49.730;10.088;2022-11-20T02:47:51;1.40;99.90
23251;DHT22;11794;49.730;10.088;2022-11-20T02:50:17;1.40;99.90
23251;DHT22;11794;49.730;10.088;2022-11-20T02:52:42;1.40;99.90
23251;DHT22;11794;49.730;10.088;2022-11-20T02:55:08;1.40;99.90
23251;DHT22;11794;49.730;10.088;2022-11-20T02:57:33;1.40;99.90
23251;DHT22;11794;49.730;10.088;2022-11-20T02:59:59;1.40;99.90
23251;DHT22;11794;49.730;10.088;2022-11-20T03:02:24;1.30;99.90
23251;DHT22;11794;49.730;10.088;2022-11-20T03:04:50;1.30;99.90
23251;DHT22;11794;49.730;10.088;2022-11-20T03:07:15;1.30;99.90
23251;DHT22;11794;49.730;10.088;2022-11-20T03:09:41;1.30;99.90
23251;DHT22;11794;49.730;10.088;2022-11-20T03:12:07;1.30;99.90
23251;DHT22;11794;49.730;10.088;2022-11-20T03:14:32;1.30;99.90
23251;DHT22;11794;49.730;10.088;2022-11-20T03:16:58;1.30;99.90
23251;DHT22;11794;49.730;10.088;2022-11-20T03:19:24;1.30;99.90
23251;DHT22;11794;49.730;10.088;2022-11-20T03:21:49;1.20;99.90
23251;DHT22;11794;49.730;10.088;2022-11-20T03:24:15;1.10;99.90
23251;DHT22;11794;49.730;10.088;2022-11-20T03:26:41;1.20;99.90
23251;DHT22;11794;49.730;10.088;2022-11-20T03:29:07;1.20;99.90
23251;DHT22;11794;49.730;10.088;2022-11-20T03:31:38;1.20;99.90
23251;DHT22;11794;49.730;10.088;2022-11-20T03:34:09;1.20;99.90
23251;DHT22;11794;49.730;10.088;2022-11-20T03:36:34;1.20;99.90
23251;DHT22;11794;49.730;10.088;2022-11-20T03:39:02;1.20;99.90
23251;DHT22;11794;49.730;10.088;2022-11-20T03:41:29;1.10;99.90
23251;DHT22;11794;49.730;10.088;2022-11-20T03:44:00;1.20;99.90
23251;DHT22;11794;49.730;10.088;2022-11-20T03:46:27;1.20;99.90
23251;DHT22;11794;49.730;10.088;2022-11-20T03:48:52;1.20;99.90
23251;DHT22;11794;49.730;10.088;2022-11-20T03:51:23;1.10;99.90
23251;DHT22;11794;49.730;10.088;2022-11-20T03:53:51;1.10;99.90
23251;DHT22;11794;49.730;10.088;2022-11-20T03:56:20;1.10;99.90
23251;DHT22;11794;49.730;10.088;2022-11-20T03:58:46;1.10;99.90
23251;DHT22;11794;49.730;10.088;2022-11-20T04:01:19;1.20;99.90
23251;DHT22;11794;49.730;10.088;2022-11-20T04:03:45;1.20;99.90
23251;DHT22;11794;49.730;10.088;2022-11-20T04:06:23;1.20;99.90
23251;DHT22;11794;49.730;10.088;2022-11-20T04:08:49;1.30;99.90
23251;DHT22;11794;49.730;10.088;2022-11-20T04:11:17;1.30;99.90
23251;DHT22;11794;49.730;10.088;2022-11-20T04:13:47;1.30;99.90
23251;DHT22;11794;49.730;10.088;2022-11-20T04:16:13;1.30;99.90
23251;DHT22;11794;49.730;10.088;2022-11-20T04:18:38;1.30;99.90
23251;DHT22;11794;49.730;10.088;2022-11-20T04:21:05;1.30;99.90
23251;DHT22;11794;49.730;10.088;2022-11-20T04:23:31;1.40;99.90
23251;DHT22;11794;49.730;10.088;2022-11-20T04:26:08;1.40;99.90
23251;DHT22;11794;49.730;10.088;2022-11-20T04:28:34;1.40;99.90
23251;DHT22;11794;49.730;10.088;2022-11-20T04:31:18;1.30;99.90
23251;DHT22;11794;49.730;10.088;2022-11-20T04:33:44;1.20;99.90
23251;DHT22;11794;49.730;10.088;2022-11-20T04:38:36;1.20;99.90
23251;DHT22;11794;49.730;10.088;2022-11-20T04:41:05;1.20;99.90
23251;DHT22;11794;49.730;10.088;2022-11-20T04:43:31;1.20;99.90
23251;DHT22;11794;49.730;10.088;2022-11-20T04:45:58;1.20;99.90
23251;DHT22;11794;49.730;10.088;2022-11-20T04:48:24;1.30;99.90
23251;DHT22;11794;49.730;10.088;2022-11-20T04:50:51;1.30;99.90
23251;DHT22;11794;49.730;10.088;2022-11-20T04:53:17;1.30;99.90
23251;DHT22;11794;49.730;10.088;2022-11-20T04:55:43;1.40;99.90
23251;DHT22;11794;49.730;10.088;2022-11-20T04:58:09;1.30;99.90
23251;DHT22;11794;49.730;10.088;2022-11-20T05:00:34;1.40;99.90
23251;DHT22;11794;49.730;10.088;2022-11-20T05:03:00;1.40;99.90
23251;DHT22;11794;49.730;10.088;2022-11-20T05:05:25;1.50;99.90
23251;DHT22;11794;49.730;10.088;2022-11-20T05:07:51;1.50;99.90
23251;DHT22;11794;49.730;10.088;2022-11-20T05:10:17;1.50;99.90
23251;DHT22;11794;49.730;10.088;2022-11-20T05:12:42;1.50;99.90
23251;DHT22;11794;49.730;10.088;2022-11-20T05:15:08;1.40;99.90
23251;DHT22;11794;49.730;10.088;2022-11-20T05:17:34;1.40;99.90
23251;DHT22;11794;49.730;10.088;2022-11-20T05:19:59;1.40;99.90
23251;DHT22;11794;49.730;10.088;2022-11-20T05:22:25;1.40;99.90
23251;DHT22;11794;49.730;10.088;2022-11-20T05:24:50;1.40;99.90
23251;DHT22;11794;49.730;10.088;2022-11-20T05:27:16;1.50;99.90
23251;DHT22;11794;49.730;10.088;2022-11-20T05:29:41;1.50;99.90
23251;DHT22;11794;49.730;10.088;2022-11-20T05:32:07;1.50;99.90
23251;DHT22;11794;49.730;10.088;2022-11-20T05:34:35;1.50;99.90
23251;DHT22;11794;49.730;10.088;2022-11-20T05:37:01;1.50;99.90
23251;DHT22;11794;49.730;10.088;2022-11-20T05:39:26;1.60;99.90
23251;DHT22;11794;49.730;10.088;2022-11-20T05:41:52;1.60;99.90
23251;DHT22;11794;49.730;10.088;2022-11-20T05:44:37;1.60;99.90
23251;DHT22;11794;49.730;10.088;2022-11-20T05:47:03;1.60;99.90
23251;DHT22;11794;49.730;10.088;2022-11-20T05:49:29;1.60;99.90
23251;DHT22;11794;49.730;10.088;2022-11-20T05:51:54;1.60;99.90
23251;DHT22;11794;49.730;10.088;2022-11-20T05:54:20;1.60;99.90
23251;DHT22;11794;49.730;10.088;2022-11-20T05:56:45;1.60;99.90
23251;DHT22;11794;49.730;10.088;2022-11-20T05:59:11;1.70;99.90
23251;DHT22;11794;49.730;10.088;2022-11-20T06:01:36;1.70;99.90
23251;DHT22;11794;49.730;10.088;2022-11-20T06:04:02;1.70;99.90
23251;DHT22;11794;49.730;10.088;2022-11-20T06:06:28;1.70;99.90
23251;DHT22;11794;49.730;10.088;2022-11-20T06:08:54;1.60;99.90
23251;DHT22;11794;49.730;10.088;2022-11-20T06:11:20;1.60;99.90
23251;DHT22;11794;49.730;10.088;2022-11-20T06:13:46;1.50;99.90
23251;DHT22;11794;49.730;10.088;2022-11-20T06:16:13;1.60;99.90
23251;DHT22;11794;49.730;10.088;2022-11-20T06:18:39;1.60;99.90
23251;DHT22;11794;49.730;10.088;2022-11-20T06:21:11;1.60;99.90
23251;DHT22;11794;49.730;10.088;2022-11-20T06:23:37;1.50;99.90
23251;DHT22;11794;49.730;10.088;2022-11-20T06:26:07;1.50;99.90
23251;DHT22;11794;49.730;10.088;2022-11-20T06:28:34;1.50;99.90
23251;DHT22;11794;49.730;10.088;2022-11-20T06:30:59;1.50;99.90
23251;DHT22;11794;49.730;10.088;2022-11-20T06:33:26;1.40;99.90
23251;DHT22;11794;49.730;10.088;2022-11-20T06:35:52;1.50;99.90
23251;DHT22;11794;49.730;10.088;2022-11-20T06:38:21;1.40;99.90
23251;DHT22;11794;49.730;10.088;2022-11-20T06:40:46;1.40;99.90
23251;DHT22;11794;49.730;10.088;2022-11-20T06:43:12;1.40;99.90
23251;DHT22;11794;49.730;10.088;2022-11-20T06:45:37;1.50;99.90
23251;DHT22;11794;49.730;10.088;2022-11-20T06:48:03;1.50;99.90
23251;DHT22;11794;49.730;10.088;2022-11-20T06:50:29;1.50;99.90
23251;DHT22;11794;49.730;10.088;2022-11-20T06:52:54;1.50;99.90
23251;DHT22;11794;49.730;10.088;2022-11-20T06:55:20;1.60;99.90
23251;DHT22;11794;49.730;10.088;2022-11-20T06:57:45;1.60;99.90
23251;DHT22;11794;49.730;10.088;2022-11-20T07:00:11;1.60;99.90
23251;DHT22;11794;49.730;10.088;2022-11-20T07:02:37;1.70;99.90
23251;DHT22;11794;49.730;10.088;2022-11-20T07:05:03;1.70;99.90
23251;DHT22;11794;49.730;10.088;2022-11-20T07:07:29;1.70;99.90
23251;DHT22;11794;49.730;10.088;2022-11-20T07:09:54;1.80;99.90
23251;DHT22;11794;49.730;10.088;2022-11-20T07:12:20;1.80;99.90
23251;DHT22;11794;49.730;10.088;2022-11-20T07:14:45;1.80;99.90
23251;DHT22;11794;49.730;10.088;2022-11-20T07:17:11;1.80;99.90
23251;DHT22;11794;49.730;10.088;2022-11-20T07:19:37;1.80;99.90
23251;DHT22;11794;49.730;10.088;2022-11-20T07:22:02;1.90;99.90
23251;DHT22;11794;49.730;10.088;2022-11-20T07:24:28;1.80;99.90
23251;DHT22;11794;49.730;10.088;2022-11-20T07:26:53;1.80;99.90
23251;DHT22;11794;49.730;10.088;2022-11-20T07:29:19;1.90;99.90
23251;DHT22;11794;49.730;10.088;2022-11-20T07:31:44;1.90;99.90
23251;DHT22;11794;49.730;10.088;2022-11-20T07:34:10;1.90;99.90
23251;DHT22;11794;49.730;10.088;2022-11-20T07:36:35;2.00;99.90
23251;DHT22;11794;49.730;10.088;2022-11-20T07:39:01;2.00;99.90
23251;DHT22;11794;49.730;10.088;2022-11-20T07:41:27;2.00;99.90
23251;DHT22;11794;49.730;10.088;2022-11-20T07:43:52;2.00;99.90
23251;DHT22;11794;49.730;10.088;2022-11-20T07:46:18;2.00;99.90
23251;DHT22;11794;49.730;10.088;2022-11-20T07:48:43;2.00;99.90
23251;DHT22;11794;49.730;10.088;2022-11-20T07:51:09;2.00;99.90
23251;DHT22;11794;49.730;10.088;2022-11-20T07:53:35;1.90;99.90
23251;DHT22;11794;49.730;10.088;2022-11-20T07:56:01;1.90;99.90
23251;DHT22;11794;49.730;10.088;2022-11-20T07:58:29;2.00;99.90
23251;DHT22;11794;49.730;10.088;2022-11-20T08:00:55;2.00;99.90
23251;DHT22;11794;49.730;10.088;2022-11-20T08:03:20;2.00;99.90
23251;DHT22;11794;49.730;10.088;2022-11-20T08:05:46;2.00;99.90
23251;DHT22;11794;49.730;10.088;2022-11-20T08:08:11;2.00;99.90
23251;DHT22;11794;49.730;10.088;2022-11-20T08:10:38;2.10;99.90
23251;DHT22;11794;49.730;10.088;2022-11-20T08:13:03;2.10;99.90
23251;DHT22;11794;49.730;10.088;2022-11-20T08:15:49;2.10;99.90
23251;DHT22;11794;49.730;10.088;2022-11-20T08:18:16;2.10;99.90
23251;DHT22;11794;49.730;10.088;2022-11-20T08:20:43;2.20;99.90
23251;DHT22;11794;49.730;10.088;2022-11-20T08:23:08;2.10;99.90
23251;DHT22;11794;49.730;10.088;2022-11-20T08:25:36;2.20;99.90
23251;DHT22;11794;49.730;10.088;2022-11-20T08:28:04;2.20;99.90
23251;DHT22;11794;49.730;10.088;2022-11-20T08:30:30;2.20;99.90
23251;DHT22;11794;49.730;10.088;2022-11-20T08:33:04;2.20;99.90
23251;DHT22;11794;49.730;10.088;2022-11-20T08:35:37;2.10;99.90
23251;DHT22;11794;49.730;10.088;2022-11-20T08:38:04;2.00;99.90
23251;DHT22;11794;49.730;10.088;2022-11-20T08:40:31;2.00;99.90
23251;DHT22;11794;49.730;10.088;2022-11-20T08:42:56;2.00;99.90
23251;DHT22;11794;49.730;10.088;2022-11-20T08:45:22;2.10;99.90
23251;DHT22;11794;49.730;10.088;2022-11-20T08:47:48;2.10;99.90
23251;DHT22;11794;49.730;10.088;2022-11-20T08:50:15;2.10;99.90
23251;DHT22;11794;49.730;10.088;2022-11-20T08:52:41;2.20;99.90
23251;DHT22;11794;49.730;10.088;2022-11-20T08:55:07;2.40;99.90
23251;DHT22;11794;49.730;10.088;2022-11-20T08:57:34;2.40;99.90
23251;DHT22;11794;49.730;10.088;2022-11-20T09:00:00;2.40;99.90
23251;DHT22;11794;49.730;10.088;2022-11-20T09:02:26;2.50;99.90
23251;DHT22;11794;49.730;10.088;2022-11-20T09:04:51;2.70;99.90
23251;DHT22;11794;49.730;10.088;2022-11-20T09:07:18;2.60;99.90
23251;DHT22;11794;49.730;10.088;2022-11-20T09:09:44;2.60;99.90
23251;DHT22;11794;49.730;10.088;2022-11-20T09:12:10;2.50;99.90
23251;DHT22;11794;49.730;10.088;2022-11-20T09:14:35;2.60;99.90
23251;DHT22;11794;49.730;10.088;2022-11-20T09:17:01;2.60;99.90
23251;DHT22;11794;49.730;10.088;2022-11-20T09:19:27;2.60;99.90
23251;DHT22;11794;49.730;10.088;2022-11-20T09:21:52;2.60;99.90
23251;DHT22;11794;49.730;10.088;2022-11-20T09:24:18;2.60;99.90
23251;DHT22;11794;49.730;10.088;2022-11-20T09:26:44;2.60;99.90
23251;DHT22;11794;49.730;10.088;2022-11-20T09:29:09;2.60;99.90
23251;DHT22;11794;49.730;10.088;2022-11-20T09:31:35;2.70;99.90
23251;DHT22;11794;49.730;10.088;2022-11-20T09:34:00;2.70;99.90
23251;DHT22;11794;49.730;10.088;2022-11-20T09:36:26;2.70;99.90
23251;DHT22;11794;49.730;10.088;2022-11-20T09:38:52;2.80;99.90
23251;DHT22;11794;49.730;10.088;2022-11-20T09:41:55;2.80;99.90
23251;DHT22;11794;49.730;10.088;2022-11-20T09:47:35;2.80;99.90
23251;DHT22;11794;49.730;10.088;2022-11-20T09:50:31;2.70;99.90
23251;DHT22;11794;49.730;10.088;2022-11-20T09:53:28;2.70;99.90
23251;DHT22;11794;49.730;10.088;2022-11-20T09:55:56;2.80;99.90
23251;DHT22;11794;49.730;10.088;2022-11-20T09:58:44;2.90;99.90
23251;DHT22;11794;49.730;10.088;2022-11-20T10:01:19;3.00;99.90
23251;DHT22;11794;49.730;10.088;2022-11-20T10:03:58;3.00;99.90
23251;DHT22;11794;49.730;10.088;2022-11-20T10:06:33;3.20;99.90
23251;DHT22;11794;49.730;10.088;2022-11-20T10:14:52;3.20;99.90
23251;DHT22;11794;49.730;10.088;2022-11-20T10:28:30;4.10;99.90
23251;DHT22;11794;49.730;10.088;2022-11-20T10:31:12;4.80;99.90
23251;DHT22;11794;49.730;10.088;2022-11-20T10:33:43;5.90;99.90
23251;DHT22;11794;49.730;10.088;2022-11-20T10:36:19;6.70;99.90
23251;DHT22;11794;49.730;10.088;2022-11-20T10:38:52;7.60;99.90
23251;DHT22;11794;49.730;10.088;2022-11-20T10:41:34;8.20;99.90
23251;DHT22;11794;49.730;10.088;2022-11-20T10:44:09;8.10;99.90
23251;DHT22;11794;49.730;10.088;2022-11-20T10:46:43;7.70;99.90
23251;DHT22;11794;49.730;10.088;2022-11-20T10:49:16;8.50;99.90
23251;DHT22;11794;49.730;10.088;2022-11-20T10:51:50;9.60;99.90
23251;DHT22;11794;49.730;10.088;2022-11-20T11:00:24;10.00;99.90
23251;DHT22;11794;49.730;10.088;2022-11-20T11:02:51;9.20;99.90
23251;DHT22;11794;49.730;10.088;2022-11-20T11:07:47;7.90;99.90
23251;DHT22;11794;49.730;10.088;2022-11-20T11:13:02;8.20;99.90
23251;DHT22;11794;49.730;10.088;2022-11-20T11:15:39;8.10;99.90
23251;DHT22;11794;49.730;10.088;2022-11-20T11:18:08;8.50;99.90
23251;DHT22;11794;49.730;10.088;2022-11-20T11:20:34;8.70;99.90
23251;DHT22;11794;49.730;10.088;2022-11-20T11:23:00;8.30;99.90
23251;DHT22;11794;49.730;10.088;2022-11-20T11:25:27;7.70;99.90
23251;DHT22;11794;49.730;10.088;2022-11-20T11:27:55;6.80;99.90
23251;DHT22;11794;49.730;10.088;2022-11-20T11:30:22;6.20;99.90
23251;DHT22;11794;49.730;10.088;2022-11-20T11:32:48;5.90;99.90
23251;DHT22;11794;49.730;10.088;2022-11-20T11:35:25;5.70;99.90
23251;DHT22;11794;49.730;10.088;2022-11-20T11:38:16;5.50;99.90
23251;DHT22;11794;49.730;10.088;2022-11-20T11:40:39;5.40;99.90
23251;DHT22;11794;49.730;10.088;2022-11-20T11:43:16;5.20;99.90
23251;DHT22;11794;49.730;10.088;2022-11-20T11:46:02;4.80;99.90
23251;DHT22;11794;49.730;10.088;2022-11-20T11:48:28;4.80;99.90
23251;DHT22;11794;49.730;10.088;2022-11-20T11:50:53;4.80;99.90
23251;DHT22;11794;49.730;10.088;2022-11-20T11:53:23;4.70;99.90
23251;DHT22;11794;49.730;10.088;2022-11-20T11:56:03;4.70;99.90
23251;DHT22;11794;49.730;10.088;2022-11-20T11:58:52;4.60;99.90
23251;DHT22;11794;49.730;10.088;2022-11-20T12:01:31;4.50;99.90
23251;DHT22;11794;49.730;10.088;2022-11-20T12:06:59;4.40;99.90
23251;DHT22;11794;49.730;10.088;2022-11-20T12:09:37;4.40;99.90
23251;DHT22;11794;49.730;10.088;2022-11-20T12:12:15;4.50;99.90
23251;DHT22;11794;49.730;10.088;2022-11-20T12:14:44;4.50;99.90
23251;DHT22;11794;49.730;10.088;2022-11-20T12:17:13;4.50;99.90
23251;DHT22;11794;49.730;10.088;2022-11-20T12:19:39;4.40;99.90
23251;DHT22;11794;49.730;10.088;2022-11-20T12:25:24;4.60;99.90
23251;DHT22;11794;49.730;10.088;2022-11-20T12:28:02;4.60;99.90
23251;DHT22;11794;49.730;10.088;2022-11-20T12:30:33;4.70;99.90
23251;DHT22;11794;49.730;10.088;2022-11-20T12:33:32;4.80;99.90
23251;DHT22;11794;49.730;10.088;2022-11-20T12:36:14;4.80;99.90
23251;DHT22;11794;49.730;10.088;2022-11-20T12:42:34;4.60;99.90
23251;DHT22;11794;49.730;10.088;2022-11-20T12:45:40;4.60;99.90
23251;DHT22;11794;49.730;10.088;2022-11-20T12:48:38;4.70;99.90
23251;DHT22;11794;49.730;10.088;2022-11-20T12:54:08;4.80;99.90
23251;DHT22;11794;49.730;10.088;2022-11-20T12:56:47;4.80;99.90
23251;DHT22;11794;49.730;10.088;2022-11-20T12:59:23;4.70;99.90
23251;DHT22;11794;49.730;10.088;2022-11-20T13:02:05;4.70;99.90
23251;DHT22;11794;49.730;10.088;2022-11-20T13:07:13;4.60;99.90
23251;DHT22;11794;49.730;10.088;2022-11-20T13:09:47;4.60;99.90
23251;DHT22;11794;49.730;10.088;2022-11-20T13:12:42;4.70;99.90
23251;DHT22;11794;49.730;10.088;2022-11-20T13:15:36;4.80;99.90
23251;DHT22;11794;49.730;10.088;2022-11-20T13:18:07;4.80;99.90
23251;DHT22;11794;49.730;10.088;2022-11-20T13:20:34;4.80;99.90
23251;DHT22;11794;49.730;10.088;2022-11-20T13:23:01;4.80;99.90
23251;DHT22;11794;49.730;10.088;2022-11-20T13:27:52;4.70;99.90
23251;DHT22;11794;49.730;10.088;2022-11-20T13:30:21;4.70;99.90
23251;DHT22;11794;49.730;10.088;2022-11-20T13:33:08;4.80;99.90
23251;DHT22;11794;49.730;10.088;2022-11-20T13:35:41;4.90;99.90
23251;DHT22;11794;49.730;10.088;2022-11-20T13:38:12;5.00;99.90
23251;DHT22;11794;49.730;10.088;2022-11-20T13:40:51;5.00;99.90
23251;DHT22;11794;49.730;10.088;2022-11-20T13:43:35;5.00;99.90
23251;DHT22;11794;49.730;10.088;2022-11-20T13:46:04;5.00;99.90
23251;DHT22;11794;49.730;10.088;2022-11-20T13:48:38;5.10;99.90
23251;DHT22;11794;49.730;10.088;2022-11-20T13:51:10;5.10;99.90
23251;DHT22;11794;49.730;10.088;2022-11-20T13:59:45;5.10;99.90
23251;DHT22;11794;49.730;10.088;2022-11-20T14:02:16;5.20;99.90
23251;DHT22;11794;49.730;10.088;2022-11-20T14:04:52;5.20;99.90
23251;DHT22;11794;49.730;10.088;2022-11-20T14:07:20;5.20;99.90
23251;DHT22;11794;49.730;10.088;2022-11-20T14:09:56;5.20;99.90
23251;DHT22;11794;49.730;10.088;2022-11-20T14:12:28;5.20;99.90
23251;DHT22;11794;49.730;10.088;2022-11-20T14:14:54;5.10;99.90
23251;DHT22;11794;49.730;10.088;2022-11-20T14:17:21;5.00;99.90
23251;DHT22;11794;49.730;10.088;2022-11-20T14:19:49;4.90;99.90
23251;DHT22;11794;49.730;10.088;2022-11-20T14:22:22;5.00;99.90
23251;DHT22;11794;49.730;10.088;2022-11-20T14:25:00;4.90;99.90
23251;DHT22;11794;49.730;10.088;2022-11-20T14:27:26;5.00;99.90
23251;DHT22;11794;49.730;10.088;2022-11-20T14:29:52;4.90;99.90
23251;DHT22;11794;49.730;10.088;2022-11-20T14:32:20;4.90;99.90
23251;DHT22;11794;49.730;10.088;2022-11-20T14:34:48;4.90;99.90
23251;DHT22;11794;49.730;10.088;2022-11-20T14:37:24;4.90;99.90
23251;DHT22;11794;49.730;10.088;2022-11-20T14:39:54;4.90;99.90
23251;DHT22;11794;49.730;10.088;2022-11-20T14:42:28;4.90;99.90
23251;DHT22;11794;49.730;10.088;2022-11-20T14:45:00;4.90;99.90
23251;DHT22;11794;49.730;10.088;2022-11-20T14:47:29;5.00;99.90
23251;DHT22;11794;49.730;10.088;2022-11-20T14:49:57;5.00;99.90
23251;DHT22;11794;49.730;10.088;2022-11-20T14:52:25;4.90;99.90
23251;DHT22;11794;49.730;10.088;2022-11-20T14:54:53;4.90;99.90
23251;DHT22;11794;49.730;10.088;2022-11-20T15:02:43;4.90;99.90
23251;DHT22;11794;49.730;10.088;2022-11-20T15:05:09;5.00;99.90
23251;DHT22;11794;49.730;10.088;2022-11-20T15:07:37;4.90;99.90
23251;DHT22;11794;49.730;10.088;2022-11-20T15:10:09;4.80;99.90
23251;DHT22;11794;49.730;10.088;2022-11-20T15:12:46;4.80;99.90
23251;DHT22;11794;49.730;10.088;2022-11-20T15:15:16;4.80;99.90
23251;DHT22;11794;49.730;10.088;2022-11-20T15:17:42;4.70;99.90
23251;DHT22;11794;49.730;10.088;2022-11-20T15:20:16;4.80;99.90
23251;DHT22;11794;49.730;10.088;2022-11-20T15:22:42;4.80;99.90
23251;DHT22;11794;49.730;10.088;2022-11-20T15:25:15;4.70;99.90
23251;DHT22;11794;49.730;10.088;2022-11-20T15:27:42;4.80;99.90
23251;DHT22;11794;49.730;10.088;2022-11-20T15:30:16;4.80;99.90
23251;DHT22;11794;49.730;10.088;2022-11-20T15:32:43;4.80;99.90
23251;DHT22;11794;49.730;10.088;2022-11-20T15:35:09;4.80;99.90
23251;DHT22;11794;49.730;10.088;2022-11-20T15:37:35;4.70;99.90
23251;DHT22;11794;49.730;10.088;2022-11-20T15:40:01;4.50;99.90
23251;DHT22;11794;49.730;10.088;2022-11-20T15:42:27;4.50;99.90
23251;DHT22;11794;49.730;10.088;2022-11-20T15:44:52;4.50;99.90
23251;DHT22;11794;49.730;10.088;2022-11-20T15:47:19;4.50;99.90
23251;DHT22;11794;49.730;10.088;2022-11-20T15:49:46;4.50;99.90
23251;DHT22;11794;49.730;10.088;2022-11-20T15:52:12;4.40;99.90
23251;DHT22;11794;49.730;10.088;2022-11-20T15:54:38;4.30;99.90
23251;DHT22;11794;49.730;10.088;2022-11-20T15:57:03;4.30;99.90
23251;DHT22;11794;49.730;10.088;2022-11-20T15:59:29;4.30;99.90
23251;DHT22;11794;49.730;10.088;2022-11-20T16:01:54;4.30;99.90
23251;DHT22;11794;49.730;10.088;2022-11-20T16:04:20;4.20;99.90
23251;DHT22;11794;49.730;10.088;2022-11-20T16:06:45;4.20;99.90
23251;DHT22;11794;49.730;10.088;2022-11-20T16:09:11;4.30;99.90
23251;DHT22;11794;49.730;10.088;2022-11-20T16:11:37;4.30;99.90
23251;DHT22;11794;49.730;10.088;2022-11-20T16:14:03;4.20;99.90
23251;DHT22;11794;49.730;10.088;2022-11-20T16:16:48;4.10;99.90
23251;DHT22;11794;49.730;10.088;2022-11-20T16:19:14;4.20;99.90
23251;DHT22;11794;49.730;10.088;2022-11-20T16:21:41;4.20;99.90
23251;DHT22;11794;49.730;10.088;2022-11-20T16:24:11;4.20;99.90
23251;DHT22;11794;49.730;10.088;2022-11-20T16:26:38;4.20;99.90
23251;DHT22;11794;49.730;10.088;2022-11-20T16:29:05;4.10;99.90
23251;DHT22;11794;49.730;10.088;2022-11-20T16:31:31;4.10;99.90
23251;DHT22;11794;49.730;10.088;2022-11-20T16:33:59;4.10;99.90
23251;DHT22;11794;49.730;10.088;2022-11-20T16:36:26;4.00;99.90
23251;DHT22;11794;49.730;10.088;2022-11-20T16:38:54;4.00;99.90
23251;DHT22;11794;49.730;10.088;2022-11-20T16:41:20;4.00;99.90
23251;DHT22;11794;49.730;10.088;2022-11-20T16:43:48;3.90;99.90
23251;DHT22;11794;49.730;10.088;2022-11-20T16:46:14;3.90;99.90
23251;DHT22;11794;49.730;10.088;2022-11-20T16:48:40;3.80;99.90
23251;DHT22;11794;49.730;10.088;2022-11-20T16:51:09;3.80;99.90